createdAt,value
2018-03-06T00:00:15.899Z,72.80
2018-03-06T00:02:43.617Z,74.20
2018-03-06T00:05:11.320Z,69.37
2018-03-06T00:07:39.040Z,75.95
2018-03-06T00:10:06.748Z,79.78
2018-03-06T00:12:34.492Z,76.00
2018-03-06T00:15:02.213Z,65.47
2018-03-06T00:17:29.911Z,74.60
2018-03-06T00:19:57.627Z,60.63
2018-03-06T00:22:25.331Z,73.35
2018-03-06T00:24:53.079Z,74.28
2018-03-06T00:27:20.803Z,69.05
2018-03-06T00:29:48.500Z,60.58
2018-03-06T00:32:16.223Z,68.47
2018-03-06T00:34:43.920Z,62.83
2018-03-06T00:37:11.654Z,74.80
2018-03-06T00:39:39.398Z,54.65
2018-03-06T00:42:07.109Z,68.85
2018-03-06T00:44:34.833Z,65.03
2018-03-06T00:47:02.528Z,61.22
2018-03-06T00:49:30.368Z,46.83
2018-03-06T00:51:58.066Z,58.45
2018-03-06T00:54:25.764Z,63.97
2018-03-06T00:56:53.494Z,59.60
2018-03-06T00:59:21.191Z,62.45
2018-03-06T01:01:48.930Z,52.30
2018-03-06T01:04:16.634Z,53.30
2018-03-06T01:06:44.336Z,65.75
2018-03-06T01:09:12.059Z,62.20
2018-03-06T01:11:39.759Z,66.65
2018-03-06T01:14:08.476Z,67.60
2018-03-06T01:16:36.162Z,63.33
2018-03-06T01:19:03.867Z,62.35
2018-03-06T01:21:31.604Z,56.00
2018-03-06T01:23:59.311Z,62.45
2018-03-06T01:26:27.312Z,55.42
2018-03-06T01:28:55.012Z,61.28
2018-03-06T01:31:22.720Z,55.38
2018-03-06T01:33:50.455Z,58.85
2018-03-06T01:36:18.163Z,64.37
2018-03-06T01:38:46.130Z,62.55
2018-03-06T01:41:13.831Z,62.20
2018-03-06T01:43:41.619Z,56.75
2018-03-06T01:46:09.332Z,57.22
2018-03-06T01:48:37.059Z,62.20
2018-03-06T01:51:04.951Z,58.15
2018-03-06T01:53:32.651Z,64.82
2018-03-06T01:56:00.388Z,67.40
2018-03-06T01:58:28.086Z,64.35
2018-03-06T02:00:55.770Z,67.22
2018-03-06T02:03:23.495Z,61.80
2018-03-06T02:05:51.192Z,59.60
2018-03-06T02:08:18.898Z,52.90
2018-03-06T02:10:46.624Z,70.60
2018-03-06T02:13:14.326Z,59.75
2018-03-06T02:15:42.298Z,75.80
2018-03-06T02:18:09.996Z,70.18
2018-03-06T02:20:37.687Z,62.28
2018-03-06T02:23:05.417Z,69.90
2018-03-06T02:25:33.109Z,65.60
2018-03-06T02:28:00.849Z,63.53
2018-03-06T02:30:28.544Z,57.17
2018-03-06T02:32:56.240Z,60.78
2018-03-06T02:35:23.956Z,61.37
2018-03-06T02:37:51.682Z,63.25
2018-03-06T02:40:19.438Z,64.93
2018-03-06T02:42:47.136Z,68.18
2018-03-06T02:45:14.835Z,57.28
2018-03-06T02:47:42.539Z,63.72
2018-03-06T02:50:10.247Z,74.75
2018-03-06T02:52:38.266Z,61.20
2018-03-06T02:55:05.965Z,65.70
2018-03-06T02:57:33.656Z,66.62
2018-03-06T03:00:01.385Z,62.70
2018-03-06T03:02:29.089Z,59.00
2018-03-06T03:04:56.820Z,70.70
2018-03-06T03:07:24.514Z,73.57
2018-03-06T03:09:52.228Z,69.32
2018-03-06T03:12:19.943Z,66.78
2018-03-06T03:14:47.650Z,63.42
2018-03-06T03:17:15.596Z,69.60
2018-03-06T03:19:43.306Z,57.95
2018-03-06T03:22:11.015Z,64.15
2018-03-06T03:24:38.742Z,53.70
2018-03-06T03:27:06.441Z,67.93
2018-03-06T03:29:34.191Z,60.58
2018-03-06T03:32:01.895Z,56.53
2018-03-06T03:34:29.600Z,67.32
2018-03-06T03:36:57.319Z,68.28
2018-03-06T03:39:25.024Z,62.83
2018-03-06T03:41:53.147Z,65.30
2018-03-06T03:44:20.851Z,62.30
2018-03-06T03:46:48.548Z,65.57
2018-03-06T03:49:16.267Z,65.78
2018-03-06T03:51:43.971Z,63.55
2018-03-06T03:54:11.725Z,64.72
2018-03-06T03:56:39.424Z,69.62
2018-03-06T03:59:07.120Z,66.75
2018-03-06T04:01:34.839Z,67.45
2018-03-06T04:04:02.540Z,70.15
2018-03-06T04:06:30.276Z,64.35
2018-03-06T04:08:57.976Z,68.80
2018-03-06T04:11:25.673Z,68.87
2018-03-06T04:13:53.403Z,60.40
2018-03-06T04:16:21.101Z,64.97
2018-03-06T04:18:48.999Z,58.72
2018-03-06T04:21:16.699Z,62.05
2018-03-06T04:23:44.390Z,71.95
2018-03-06T04:26:12.116Z,70.05
2018-03-06T04:28:39.807Z,63.38
2018-03-06T04:31:07.723Z,74.65
2018-03-06T04:33:35.482Z,67.35
2018-03-06T04:36:03.177Z,61.30
2018-03-06T04:38:30.908Z,64.90
2018-03-06T04:40:58.608Z,67.62
2018-03-06T04:43:26.633Z,64.30
2018-03-06T04:45:54.337Z,70.32
2018-03-06T04:48:22.028Z,62.80
2018-03-06T04:50:49.748Z,79.00
2018-03-06T04:53:17.450Z,73.00
2018-03-06T04:55:45.561Z,66.72
2018-03-06T04:58:13.251Z,63.42
2018-03-06T05:00:40.955Z,75.28
2018-03-06T05:03:08.672Z,70.43
2018-03-06T05:05:36.396Z,65.00
2018-03-06T05:08:04.306Z,72.95
2018-03-06T05:10:32.005Z,75.72
2018-03-06T05:12:59.716Z,64.37
2018-03-06T05:15:27.436Z,76.30
2018-03-06T05:17:55.127Z,69.05
2018-03-06T05:20:22.887Z,71.45
2018-03-06T05:22:50.580Z,71.20
2018-03-06T05:25:18.277Z,69.20
2018-03-06T05:27:45.996Z,76.70
2018-03-06T05:30:13.706Z,62.50
2018-03-06T05:32:41.451Z,70.07
2018-03-06T05:35:09.143Z,66.75
2018-03-06T05:37:36.846Z,66.93
2018-03-06T05:40:04.568Z,77.80
2018-03-06T05:42:32.252Z,64.87
2018-03-06T05:44:59.995Z,76.93
2018-03-06T05:47:27.696Z,66.50
2018-03-06T05:49:55.387Z,75.35
2018-03-06T05:52:23.131Z,71.25
2018-03-06T05:54:50.841Z,66.37
2018-03-06T05:57:18.867Z,80.53
2018-03-06T05:59:46.558Z,76.25
2018-03-06T06:02:14.298Z,72.57
2018-03-06T06:04:42.036Z,68.35
2018-03-06T06:07:09.747Z,72.07
2018-03-06T06:09:37.648Z,79.90
2018-03-06T06:12:07.085Z,78.18
2018-03-06T06:14:34.819Z,81.95
2018-03-06T06:17:02.553Z,82.72
2018-03-06T06:19:30.229Z,70.82
2018-03-06T06:21:58.008Z,69.47
2018-03-06T06:24:25.773Z,75.18
2018-03-06T06:26:53.378Z,74.72
2018-03-06T06:29:21.107Z,71.43
2018-03-06T06:31:49.578Z,73.65
2018-03-06T06:34:17.321Z,85.18
2018-03-06T06:36:45.011Z,86.47
2018-03-06T06:39:12.707Z,83.15
2018-03-06T06:41:40.435Z,68.45
2018-03-06T06:44:08.107Z,79.10
2018-03-06T06:46:35.937Z,75.45
2018-03-06T06:49:03.667Z,69.87
2018-03-06T06:51:31.344Z,76.05
2018-03-06T06:53:59.077Z,79.10
2018-03-06T06:56:26.843Z,78.65
2018-03-06T06:58:54.749Z,82.20
2018-03-06T07:01:22.448Z,77.80
2018-03-06T07:03:50.241Z,85.45
2018-03-06T07:06:17.939Z,82.80
2018-03-06T07:08:45.616Z,74.20
2018-03-06T07:11:13.447Z,84.65
2018-03-06T07:13:41.119Z,90.45
2018-03-06T07:16:08.804Z,92.95
2018-03-06T07:18:36.492Z,82.15
2018-03-06T07:21:04.159Z,89.28
2018-03-06T07:23:31.881Z,71.43
2018-03-06T07:26:00.497Z,78.65
2018-03-06T07:28:28.164Z,78.50
2018-03-06T07:30:55.862Z,81.82
2018-03-06T07:33:23.547Z,90.32
2018-03-06T07:35:51.240Z,92.40
2018-03-06T07:38:18.944Z,85.72
2018-03-06T07:40:46.618Z,78.82
2018-03-06T07:43:14.314Z,97.12
2018-03-06T07:45:41.981Z,80.53
2018-03-06T07:48:09.702Z,88.65
2018-03-06T07:50:37.372Z,75.37
2018-03-06T07:53:05.094Z,84.30
2018-03-06T07:55:32.804Z,90.45
2018-03-06T07:58:00.489Z,105.93
2018-03-06T08:00:28.432Z,80.15
2018-03-06T08:02:56.506Z,73.87
2018-03-06T08:05:24.292Z,91.07
2018-03-06T08:07:51.987Z,84.70
2018-03-06T08:10:19.833Z,88.15
2018-03-06T08:12:47.994Z,87.05
2018-03-06T08:15:16.012Z,108.20
2018-03-06T08:17:44.042Z,122.90
2018-03-06T08:20:12.116Z,101.57
2018-03-06T08:22:40.143Z,110.37
2018-03-06T08:25:08.248Z,92.60
2018-03-06T08:27:36.220Z,78.95
2018-03-06T08:30:04.082Z,82.17
2018-03-06T08:32:32.861Z,86.63
2018-03-06T08:35:01.665Z,69.87
2018-03-06T08:37:30.655Z,110.10
2018-03-06T08:39:58.511Z,83.27
2018-03-06T08:42:26.323Z,88.80
2018-03-06T08:44:54.256Z,88.37
2018-03-06T08:47:23.524Z,101.35
2018-03-06T08:49:52.823Z,74.60
2018-03-06T08:52:21.593Z,97.00
2018-03-06T08:54:49.411Z,83.57
2018-03-06T08:57:17.376Z,85.67
2018-03-06T08:59:45.020Z,80.23
2018-03-06T09:02:12.656Z,83.57
2018-03-06T09:04:40.264Z,79.97
2018-03-06T09:07:07.878Z,82.43
2018-03-06T09:09:35.497Z,86.43
2018-03-06T09:12:03.088Z,69.33
2018-03-06T09:14:31.409Z,78.63
2018-03-06T09:17:03.055Z,61.00
2018-03-06T09:19:30.945Z,97.43
2018-03-06T09:21:58.561Z,82.73
2018-03-06T09:24:26.171Z,84.50
2018-03-06T09:26:54.092Z,83.83
2018-03-06T09:29:21.703Z,92.93
2018-03-06T09:31:49.746Z,70.73
2018-03-06T09:34:17.337Z,75.40
2018-03-06T09:36:44.935Z,80.20
2018-03-06T09:39:12.561Z,76.50
2018-03-06T09:41:40.159Z,75.97
2018-03-06T09:44:07.970Z,101.17
2018-03-06T09:46:35.576Z,73.00
2018-03-06T09:49:03.175Z,93.47
2018-03-06T09:51:30.811Z,80.17
2018-03-06T09:53:58.421Z,82.23
2018-03-06T09:56:26.660Z,83.50
2018-03-06T09:58:54.471Z,77.70
2018-03-06T10:01:22.150Z,77.10
2018-03-06T10:03:49.794Z,78.77
2018-03-06T10:06:17.394Z,105.67
2018-03-06T10:08:45.043Z,85.60
2018-03-06T10:11:12.761Z,78.87
2018-03-06T10:13:40.363Z,83.80
2018-03-06T10:16:08.016Z,130.53
2018-03-06T10:18:35.750Z,69.30
2018-03-06T10:21:03.622Z,78.27
2018-03-06T10:23:31.225Z,77.33
2018-03-06T10:25:59.007Z,83.87
2018-03-06T10:28:26.874Z,69.67
2018-03-06T10:30:54.472Z,76.23
2018-03-06T10:33:22.199Z,95.73
2018-03-06T10:35:49.813Z,88.37
2018-03-06T10:38:17.411Z,80.87
2018-03-06T10:40:45.135Z,87.73
2018-03-06T10:43:12.879Z,75.87
2018-03-06T10:45:40.648Z,80.43
2018-03-06T10:48:08.239Z,73.23
2018-03-06T10:50:35.827Z,79.90
2018-03-06T10:53:03.459Z,88.73
2018-03-06T10:55:31.320Z,73.43
2018-03-06T10:57:59.286Z,77.90
2018-03-06T11:00:32.449Z,89.53
2018-03-06T11:03:00.092Z,81.10
2018-03-06T11:05:29.473Z,80.67
2018-03-06T11:08:01.416Z,82.93
2018-03-06T11:10:29.038Z,88.83
2018-03-06T11:12:56.646Z,74.07
2018-03-06T11:15:24.277Z,86.67
2018-03-06T11:17:51.881Z,97.47
2018-03-06T11:20:19.995Z,82.00
2018-03-06T11:22:47.597Z,81.77
2018-03-06T11:25:15.341Z,89.33
2018-03-06T11:27:43.303Z,78.23
2018-03-06T11:30:10.900Z,86.47
2018-03-06T11:32:38.639Z,89.13
2018-03-06T11:35:06.510Z,96.53
2018-03-06T11:37:34.104Z,93.10
2018-03-06T11:40:01.808Z,92.22
2018-03-06T11:42:29.406Z,90.67
2018-03-06T11:44:57.041Z,87.10
2018-03-06T11:47:24.923Z,80.73
2018-03-06T11:49:52.567Z,101.53
2018-03-06T11:52:20.191Z,103.67
2018-03-06T11:54:47.802Z,96.53
2018-03-06T11:57:15.557Z,86.17
2018-03-06T11:59:44.559Z,97.63
2018-03-06T12:02:12.145Z,84.43
2018-03-06T12:04:40.505Z,99.33
2018-03-06T12:07:08.120Z,86.93
2018-03-06T12:09:36.116Z,84.70
2018-03-06T12:12:03.899Z,97.18
2018-03-06T12:14:31.753Z,88.12
2018-03-06T12:16:59.435Z,96.40
2018-03-06T12:19:27.106Z,83.93
2018-03-06T12:21:54.940Z,93.53
2018-03-06T12:24:22.612Z,86.73
2018-03-06T12:26:50.205Z,83.67
2018-03-06T12:29:17.907Z,90.55
2018-03-06T12:31:45.579Z,90.65
2018-03-06T12:34:13.376Z,100.12
2018-03-06T12:36:41.060Z,83.80
2018-03-06T12:39:08.742Z,103.10
2018-03-06T12:41:36.396Z,101.83
2018-03-06T12:44:04.023Z,85.23
2018-03-06T12:46:32.121Z,97.47
2018-03-06T12:48:59.788Z,104.47
2018-03-06T12:51:27.464Z,94.68
2018-03-06T12:53:55.247Z,88.30
2018-03-06T12:56:22.948Z,90.18
2018-03-06T12:58:50.815Z,88.75
2018-03-06T13:01:18.535Z,90.85
2018-03-06T13:03:46.232Z,92.25
2018-03-06T13:06:13.851Z,98.13
2018-03-06T13:08:41.544Z,100.70
2018-03-06T13:11:09.273Z,106.55
2018-03-06T13:13:36.988Z,84.85
2018-03-06T13:16:04.643Z,97.43
2018-03-06T13:18:32.518Z,96.10
2018-03-06T13:21:00.249Z,96.85
2018-03-06T13:23:27.984Z,107.93
2018-03-06T13:25:55.667Z,96.05
2018-03-06T13:28:23.344Z,85.95
2018-03-06T13:30:51.046Z,105.47
2018-03-06T13:33:18.846Z,81.10
2018-03-06T13:35:46.571Z,96.90
2018-03-06T13:38:14.474Z,86.07
2018-03-06T13:40:42.297Z,94.60
2018-03-06T13:43:10.399Z,98.95
2018-03-06T13:45:38.084Z,105.25
2018-03-06T13:48:05.784Z,87.88
2018-03-06T13:50:33.466Z,86.35
2018-03-06T13:53:01.427Z,99.13
2018-03-06T13:55:29.097Z,94.32
2018-03-06T13:57:56.776Z,103.20
2018-03-06T14:00:24.468Z,93.20
2018-03-06T14:02:52.159Z,102.03
2018-03-06T14:05:19.863Z,93.07
2018-03-06T14:07:47.541Z,107.97
2018-03-06T14:10:15.264Z,101.93
2018-03-06T14:12:42.853Z,94.00
2018-03-06T14:15:10.529Z,110.45
2018-03-06T14:17:38.220Z,104.18
2018-03-06T14:20:05.900Z,98.45
2018-03-06T14:22:33.779Z,94.35
2018-03-06T14:25:01.468Z,111.93
2018-03-06T14:27:29.148Z,118.07
2018-03-06T14:29:56.843Z,95.40
2018-03-06T14:32:24.443Z,117.03
2018-03-06T14:34:52.189Z,114.40
2018-03-06T14:37:19.869Z,109.95
2018-03-06T14:39:47.475Z,116.37
2018-03-06T14:42:15.092Z,111.00
2018-03-06T14:44:42.779Z,115.60
2018-03-06T14:47:10.600Z,111.40
2018-03-06T14:49:38.220Z,102.60
2018-03-06T14:52:05.904Z,109.12
2018-03-06T14:54:33.608Z,115.93
2018-03-06T14:57:01.305Z,120.50
2018-03-06T14:59:29.193Z,107.05
2018-03-06T15:01:56.882Z,119.35
2018-03-06T15:04:24.678Z,123.35
2018-03-06T15:06:52.375Z,105.68
2018-03-06T15:09:20.076Z,117.20
2018-03-06T15:11:47.787Z,142.13
2018-03-06T15:14:15.473Z,121.72
2018-03-06T15:16:44.070Z,111.75
2018-03-06T15:19:11.779Z,107.55
2018-03-06T15:21:39.460Z,93.60
2018-03-06T15:24:07.390Z,99.95
2018-03-06T15:26:35.072Z,106.72
2018-03-06T15:29:02.751Z,104.97
2018-03-06T15:31:30.463Z,103.47
2018-03-06T15:33:58.136Z,86.93
2018-03-06T15:36:25.952Z,99.62
2018-03-06T15:38:53.587Z,112.53
2018-03-06T15:41:21.256Z,105.22
2018-03-06T15:43:48.985Z,112.93
2018-03-06T15:46:16.655Z,93.00
2018-03-06T15:48:44.478Z,108.33
2018-03-06T15:51:12.163Z,104.60
2018-03-06T15:53:39.844Z,97.53
2018-03-06T15:56:07.510Z,115.33
2018-03-06T15:58:35.187Z,110.20
2018-03-06T16:01:03.040Z,115.73
2018-03-06T16:03:30.648Z,101.87
2018-03-06T16:05:58.342Z,113.00
2018-03-06T16:08:25.988Z,111.50
2018-03-06T16:10:53.593Z,97.53
2018-03-06T16:13:21.560Z,101.40
2018-03-06T16:15:49.231Z,98.03
2018-03-06T16:18:16.904Z,110.03
2018-03-06T16:20:44.540Z,107.70
2018-03-06T16:23:12.137Z,99.40
2018-03-06T16:25:39.956Z,98.57
2018-03-06T16:28:07.557Z,115.73
2018-03-06T16:30:35.170Z,105.83
2018-03-06T16:33:02.795Z,110.17
2018-03-06T16:35:31.038Z,111.57
2018-03-06T16:38:01.964Z,105.22
2018-03-06T16:40:31.701Z,101.25
2018-03-06T16:43:01.024Z,97.57
2018-03-06T16:45:30.622Z,107.87
2018-03-06T16:48:06.699Z,105.15
2018-03-06T16:50:38.932Z,111.30
2018-03-06T16:53:08.794Z,110.70
2018-03-06T16:55:38.543Z,104.43
2018-03-06T16:58:06.727Z,97.72
2018-03-06T17:00:34.474Z,102.10
2018-03-06T17:03:02.213Z,99.62
2018-03-06T17:05:30.121Z,100.25
2018-03-06T17:07:57.878Z,91.97
2018-03-06T17:10:25.555Z,88.03
2018-03-06T17:12:53.265Z,93.12
2018-03-06T17:15:20.940Z,98.30
2018-03-06T17:17:48.707Z,99.30
2018-03-06T17:20:16.381Z,102.25
2018-03-06T17:22:44.060Z,102.12
2018-03-06T17:25:11.756Z,104.28
2018-03-06T17:27:39.486Z,103.65
2018-03-06T17:30:08.172Z,102.18
2018-03-06T17:32:35.843Z,118.32
2018-03-06T17:35:03.527Z,110.28
2018-03-06T17:37:31.226Z,98.62
2018-03-06T17:39:58.896Z,99.82
2018-03-06T17:42:26.810Z,110.25
2018-03-06T17:44:54.504Z,104.47
2018-03-06T17:47:22.172Z,104.63
2018-03-06T17:49:49.870Z,105.70
2018-03-06T17:52:17.560Z,105.28
2018-03-06T17:54:45.593Z,115.25
2018-03-06T17:57:13.293Z,115.45
2018-03-06T17:59:40.972Z,110.43
2018-03-06T18:02:09.461Z,112.82
2018-03-06T18:04:37.146Z,102.18
2018-03-06T18:07:05.019Z,106.07
2018-03-06T18:09:32.715Z,113.82
2018-03-06T18:12:00.393Z,99.30
2018-03-06T18:14:28.089Z,104.43
2018-03-06T18:16:55.767Z,107.15
2018-03-06T18:19:23.468Z,117.25
2018-03-06T18:21:51.151Z,118.90
2018-03-06T18:24:19.100Z,106.22
2018-03-06T18:26:46.806Z,118.10
2018-03-06T18:29:14.491Z,116.78
2018-03-06T18:31:42.198Z,117.05
2018-03-06T18:34:09.888Z,113.80
2018-03-06T18:36:37.614Z,109.63
2018-03-06T18:39:05.342Z,120.07
2018-03-06T18:41:33.071Z,99.45
2018-03-06T18:44:00.757Z,102.35
2018-03-06T18:46:28.456Z,95.10
2018-03-06T18:48:56.156Z,131.35
2018-03-06T18:51:23.834Z,104.50
2018-03-06T18:53:51.521Z,93.80
2018-03-06T18:56:19.197Z,103.05
2018-03-06T18:58:46.893Z,103.78
2018-03-06T19:04:31.377Z,104.07
2018-03-06T19:07:07.176Z,101.12
2018-03-06T19:09:34.873Z,92.30
2018-03-06T19:12:02.565Z,97.10
2018-03-06T19:14:30.283Z,113.40
2018-03-06T19:16:57.949Z,93.53
2018-03-06T19:19:25.661Z,98.53
2018-03-06T19:21:53.357Z,94.70
2018-03-06T19:24:21.040Z,95.87
2018-03-06T19:26:48.746Z,104.28
2018-03-06T19:29:16.419Z,96.75
2018-03-06T19:31:44.119Z,93.47
2018-03-06T19:34:11.811Z,93.20
2018-03-06T19:36:39.499Z,86.63
2018-03-06T19:39:07.180Z,107.68
2018-03-06T19:41:34.883Z,111.18
2018-03-06T19:44:02.573Z,101.65
2018-03-06T19:46:30.261Z,108.53
2018-03-06T19:48:57.995Z,103.78
2018-03-06T19:51:25.692Z,110.03
2018-03-06T19:53:53.425Z,92.37
2018-03-06T19:56:21.111Z,98.10
2018-03-06T19:58:48.809Z,102.15
2018-03-06T20:01:16.510Z,101.97
2018-03-06T20:03:44.190Z,128.98
2018-03-06T20:06:11.884Z,92.85
2018-03-06T20:08:39.589Z,114.95
2018-03-06T20:11:07.298Z,111.22
2018-03-06T20:13:34.975Z,95.32
2018-03-06T20:16:03.043Z,105.70
2018-03-06T20:18:30.716Z,99.70
2018-03-06T20:20:58.392Z,102.15
2018-03-06T20:23:26.120Z,113.40
2018-03-06T20:25:59.613Z,95.20
2018-03-06T20:28:27.312Z,100.15
2018-03-06T20:31:00.389Z,105.37
2018-03-06T20:33:28.107Z,102.80
2018-03-06T20:35:55.788Z,110.10
2018-03-06T20:38:29.113Z,104.75
2018-03-06T20:40:56.800Z,115.10
2018-03-06T20:43:24.561Z,99.00
2018-03-06T20:45:57.887Z,109.63
2018-03-06T20:48:25.947Z,119.85
2018-03-06T20:50:53.637Z,115.12
2018-03-06T20:53:26.971Z,108.00
2018-03-06T20:55:54.637Z,102.53
2018-03-06T20:58:22.316Z,114.07
2018-03-06T21:00:50.023Z,106.95
2018-03-06T21:03:17.698Z,97.22
2018-03-06T21:05:45.394Z,105.60
2018-03-06T21:08:13.072Z,99.53
2018-03-06T21:10:40.784Z,96.32
2018-03-06T21:13:08.465Z,80.25
2018-03-06T21:15:36.156Z,93.05
2018-03-06T21:18:03.855Z,110.63
2018-03-06T21:20:31.569Z,120.90
2018-03-06T21:22:59.251Z,110.35
2018-03-06T21:25:27.028Z,104.30
2018-03-06T21:27:54.708Z,115.60
2018-03-06T21:30:22.383Z,107.75
2018-03-06T21:32:50.101Z,113.85
2018-03-06T21:35:17.785Z,119.60
2018-03-06T21:37:45.496Z,105.47
2018-03-06T21:40:13.188Z,105.43
2018-03-06T21:42:40.909Z,94.18
2018-03-06T21:45:08.593Z,95.68
2018-03-06T21:47:36.194Z,92.13
2018-03-06T21:50:03.902Z,97.32
2018-03-06T21:52:31.580Z,88.47
2018-03-06T21:54:59.273Z,103.87
2018-03-06T21:57:26.943Z,95.45
2018-03-06T21:59:54.796Z,90.43
2018-03-06T22:02:22.484Z,89.95
2018-03-06T22:04:50.188Z,103.93
2018-03-06T22:07:17.891Z,88.57
2018-03-06T22:09:45.570Z,85.20
2018-03-06T22:12:13.292Z,107.78
2018-03-06T22:14:41.716Z,110.37
2018-03-06T22:17:09.447Z,94.53
2018-03-06T22:19:37.128Z,92.97
2018-03-06T22:22:04.800Z,90.25
2018-03-06T22:24:32.496Z,89.47
2018-03-06T22:27:00.181Z,108.45
2018-03-06T22:29:27.918Z,89.93
2018-03-06T22:31:56.401Z,97.55
2018-03-06T22:34:24.071Z,98.12
2018-03-06T22:36:51.765Z,83.30
2018-03-06T22:39:19.364Z,101.50
2018-03-06T22:41:47.068Z,92.22
2018-03-06T22:44:14.758Z,98.28
2018-03-06T22:46:42.544Z,98.87
2018-03-06T22:49:10.155Z,105.90
2018-03-06T22:51:37.844Z,93.90
2018-03-06T22:54:05.548Z,78.40
2018-03-06T22:56:33.148Z,89.57
2018-03-06T22:59:00.764Z,93.87
2018-03-06T23:01:28.464Z,88.43
2018-03-06T23:03:56.363Z,96.32
2018-03-06T23:06:23.961Z,99.80
2018-03-06T23:08:51.636Z,95.57
2018-03-06T23:11:19.256Z,92.10
2018-03-06T23:13:46.852Z,95.13
2018-03-06T23:16:14.465Z,94.70
2018-03-06T23:18:42.141Z,109.68
2018-03-06T23:21:10.013Z,102.10
2018-03-06T23:23:37.613Z,104.07
2018-03-06T23:26:05.212Z,92.77
2018-03-06T23:28:32.837Z,102.50
2018-03-06T23:31:00.435Z,106.70
2018-03-06T23:33:28.052Z,105.90
2018-03-06T23:35:55.754Z,104.78
2018-03-06T23:38:23.746Z,104.90
2018-03-06T23:40:51.424Z,128.52
2018-03-06T23:43:19.101Z,103.78
2018-03-06T23:45:46.724Z,101.17
2018-03-06T23:48:14.320Z,113.63
2018-03-06T23:50:41.965Z,120.50
2018-03-06T23:53:09.561Z,123.90
2018-03-06T23:55:37.588Z,105.70
2018-03-06T23:58:05.193Z,124.63
